Bagdad, Arizona
Current Conditions -  °F | °C
As of 7:53 PM on Friday 21 Nov 2014 (Local Time) from KPRC Reporting Station
Clear Clear  
Wind Chill: 33°   Ceiling: Unl
Heat Index: 39°   Visibility: 10mi
Dew Point: 21°   Wind: 8mph
Humidity: 49%   Direction: 180°S
Pressure: 30.04"   Gusts: NA
Location:  34.58°N, 113.17°W
Report Text: KPRC 220253Z 18007KT 10SM CLR 04/M06 A3004 RMK AO2 SLP154 T00391061 51016
Loading
Personal Weather Stations






























Interactive Weather Map New forecast layout! Learn more

10-Day Weather Forecast

Advertisements
Track Severe Weather on mobile